sensor_id;sensor_type;location;lat;lon;timestamp;P1;durP1;ratioP1;P2;durP2;ratioP2
25549;SDS011;13444;50.562;7.262;2022-11-21T00:00:56;9.95;;;2.35;;
25549;SDS011;13444;50.562;7.262;2022-11-21T00:03:22;11.53;;;2.90;;
25549;SDS011;13444;50.562;7.262;2022-11-21T00:05:48;10.67;;;2.63;;
25549;SDS011;13444;50.562;7.262;2022-11-21T00:08:15;9.40;;;2.37;;
25549;SDS011;13444;50.562;7.262;2022-11-21T00:10:42;8.20;;;2.65;;
25549;SDS011;13444;50.562;7.262;2022-11-21T00:13:12;6.60;;;1.90;;
25549;SDS011;13444;50.562;7.262;2022-11-21T00:15:40;9.20;;;2.30;;
25549;SDS011;13444;50.562;7.262;2022-11-21T00:18:05;10.38;;;2.40;;
25549;SDS011;13444;50.562;7.262;2022-11-21T00:20:31;11.63;;;2.25;;
25549;SDS011;13444;50.562;7.262;2022-11-21T00:22:56;7.95;;;1.90;;
25549;SDS011;13444;50.562;7.262;2022-11-21T00:25:22;10.03;;;2.23;;
25549;SDS011;13444;50.562;7.262;2022-11-21T00:27:47;5.50;;;2.10;;
25549;SDS011;13444;50.562;7.262;2022-11-21T00:30:13;9.10;;;2.08;;
25549;SDS011;13444;50.562;7.262;2022-11-21T00:32:39;6.65;;;1.90;;
25549;SDS011;13444;50.562;7.262;2022-11-21T00:35:05;4.63;;;1.80;;
25549;SDS011;13444;50.562;7.262;2022-11-21T00:37:31;9.90;;;2.57;;
25549;SDS011;13444;50.562;7.262;2022-11-21T00:39:57;8.30;;;2.63;;
25549;SDS011;13444;50.562;7.262;2022-11-21T00:42:23;6.85;;;2.20;;
25549;SDS011;13444;50.562;7.262;2022-11-21T00:44:48;7.50;;;1.87;;
25549;SDS011;13444;50.562;7.262;2022-11-21T00:47:14;8.57;;;2.05;;
25549;SDS011;13444;50.562;7.262;2022-11-21T00:49:39;10.30;;;2.67;;
25549;SDS011;13444;50.562;7.262;2022-11-21T00:52:05;10.45;;;1.95;;
25549;SDS011;13444;50.562;7.262;2022-11-21T00:54:30;7.00;;;2.10;;
25549;SDS011;13444;50.562;7.262;2022-11-21T00:56:56;9.55;;;2.90;;
25549;SDS011;13444;50.562;7.262;2022-11-21T00:59:21;9.15;;;2.28;;
25549;SDS011;13444;50.562;7.262;2022-11-21T01:01:47;7.70;;;2.10;;
25549;SDS011;13444;50.562;7.262;2022-11-21T01:04:12;7.85;;;2.45;;
25549;SDS011;13444;50.562;7.262;2022-11-21T01:06:38;10.90;;;3.37;;
25549;SDS011;13444;50.562;7.262;2022-11-21T01:09:04;11.23;;;2.40;;
25549;SDS011;13444;50.562;7.262;2022-11-21T01:11:29;17.13;;;3.17;;
25549;SDS011;13444;50.562;7.262;2022-11-21T01:13:55;10.55;;;2.38;;
25549;SDS011;13444;50.562;7.262;2022-11-21T01:16:22;16.27;;;3.70;;
25549;SDS011;13444;50.562;7.262;2022-11-21T01:18:49;7.30;;;1.90;;
25549;SDS011;13444;50.562;7.262;2022-11-21T01:21:16;10.13;;;2.30;;
25549;SDS011;13444;50.562;7.262;2022-11-21T01:23:44;7.68;;;2.53;;
25549;SDS011;13444;50.562;7.262;2022-11-21T01:26:11;13.10;;;2.60;;
25549;SDS011;13444;50.562;7.262;2022-11-21T01:28:38;14.10;;;2.70;;
25549;SDS011;13444;50.562;7.262;2022-11-21T01:31:08;11.77;;;2.70;;
25549;SDS011;13444;50.562;7.262;2022-11-21T01:33:35;10.07;;;2.67;;
25549;SDS011;13444;50.562;7.262;2022-11-21T01:36:44;10.73;;;3.05;;
25549;SDS011;13444;50.562;7.262;2022-11-21T01:38:55;11.40;;;2.88;;
25549;SDS011;13444;50.562;7.262;2022-11-21T01:41:23;9.70;;;2.80;;
25549;SDS011;13444;50.562;7.262;2022-11-21T01:43:49;14.50;;;3.15;;
25549;SDS011;13444;50.562;7.262;2022-11-21T01:46:16;10.93;;;3.07;;
25549;SDS011;13444;50.562;7.262;2022-11-21T01:49:00;11.93;;;2.80;;
25549;SDS011;13444;50.562;7.262;2022-11-21T01:51:46;6.87;;;2.67;;
25549;SDS011;13444;50.562;7.262;2022-11-21T01:54:18;11.10;;;2.63;;
25549;SDS011;13444;50.562;7.262;2022-11-21T01:56:50;15.10;;;2.97;;
25549;SDS011;13444;50.562;7.262;2022-11-21T01:59:32;10.10;;;2.60;;
25549;SDS011;13444;50.562;7.262;2022-11-21T02:02:11;15.33;;;2.87;;
25549;SDS011;13444;50.562;7.262;2022-11-21T02:04:39;8.90;;;2.70;;
25549;SDS011;13444;50.562;7.262;2022-11-21T02:07:07;12.33;;;3.53;;
25549;SDS011;13444;50.562;7.262;2022-11-21T02:09:34;13.27;;;3.00;;
25549;SDS011;13444;50.562;7.262;2022-11-21T02:12:07;10.70;;;2.37;;
25549;SDS011;13444;50.562;7.262;2022-11-21T02:14:39;15.35;;;3.70;;
25549;SDS011;13444;50.562;7.262;2022-11-21T02:17:06;9.13;;;3.00;;
25549;SDS011;13444;50.562;7.262;2022-11-21T02:22:26;16.50;;;2.80;;
25549;SDS011;13444;50.562;7.262;2022-11-21T02:25:23;13.40;;;3.03;;
25549;SDS011;13444;50.562;7.262;2022-11-21T02:27:52;11.03;;;2.83;;
25549;SDS011;13444;50.562;7.262;2022-11-21T02:30:21;12.80;;;3.10;;
25549;SDS011;13444;50.562;7.262;2022-11-21T02:32:47;9.68;;;3.17;;
25549;SDS011;13444;50.562;7.262;2022-11-21T02:35:13;10.95;;;2.83;;
25549;SDS011;13444;50.562;7.262;2022-11-21T02:37:40;9.50;;;2.50;;
25549;SDS011;13444;50.562;7.262;2022-11-21T02:40:09;13.23;;;2.33;;
25549;SDS011;13444;50.562;7.262;2022-11-21T02:42:48;9.50;;;2.17;;
25549;SDS011;13444;50.562;7.262;2022-11-21T02:45:35;8.47;;;2.40;;
25549;SDS011;13444;50.562;7.262;2022-11-21T02:48:04;9.57;;;2.47;;
25549;SDS011;13444;50.562;7.262;2022-11-21T02:50:31;8.53;;;2.40;;
25549;SDS011;13444;50.562;7.262;2022-11-21T02:53:09;8.90;;;2.57;;
25549;SDS011;13444;50.562;7.262;2022-11-21T02:55:36;8.68;;;2.20;;
25549;SDS011;13444;50.562;7.262;2022-11-21T02:58:02;9.43;;;2.50;;
25549;SDS011;13444;50.562;7.262;2022-11-21T03:00:29;8.97;;;2.07;;
25549;SDS011;13444;50.562;7.262;2022-11-21T03:02:55;7.60;;;2.10;;
25549;SDS011;13444;50.562;7.262;2022-11-21T03:05:20;7.67;;;2.10;;
25549;SDS011;13444;50.562;7.262;2022-11-21T03:07:46;10.17;;;2.53;;
25549;SDS011;13444;50.562;7.262;2022-11-21T03:10:12;10.07;;;2.40;;
25549;SDS011;13444;50.562;7.262;2022-11-21T03:12:39;6.23;;;1.80;;
25549;SDS011;13444;50.562;7.262;2022-11-21T03:15:06;7.70;;;2.07;;
25549;SDS011;13444;50.562;7.262;2022-11-21T03:17:34;8.47;;;2.20;;
25549;SDS011;13444;50.562;7.262;2022-11-21T03:20:00;7.60;;;2.37;;
25549;SDS011;13444;50.562;7.262;2022-11-21T03:22:25;8.93;;;2.50;;
25549;SDS011;13444;50.562;7.262;2022-11-21T03:24:51;5.80;;;2.00;;
25549;SDS011;13444;50.562;7.262;2022-11-21T03:27:17;10.33;;;2.87;;
25549;SDS011;13444;50.562;7.262;2022-11-21T03:29:42;8.97;;;2.90;;
25549;SDS011;13444;50.562;7.262;2022-11-21T03:32:08;8.67;;;2.67;;
25549;SDS011;13444;50.562;7.262;2022-11-21T03:34:33;6.87;;;2.00;;
25549;SDS011;13444;50.562;7.262;2022-11-21T03:36:59;8.60;;;2.13;;
25549;SDS011;13444;50.562;7.262;2022-11-21T03:39:24;8.63;;;2.70;;
25549;SDS011;13444;50.562;7.262;2022-11-21T03:41:50;9.87;;;2.33;;
25549;SDS011;13444;50.562;7.262;2022-11-21T03:44:16;11.50;;;3.10;;
25549;SDS011;13444;50.562;7.262;2022-11-21T03:46:42;12.63;;;2.67;;
25549;SDS011;13444;50.562;7.262;2022-11-21T03:49:09;6.87;;;2.43;;
25549;SDS011;13444;50.562;7.262;2022-11-21T03:51:35;10.07;;;2.40;;
25549;SDS011;13444;50.562;7.262;2022-11-21T03:54:01;8.27;;;2.43;;
25549;SDS011;13444;50.562;7.262;2022-11-21T03:56:28;9.47;;;2.40;;
25549;SDS011;13444;50.562;7.262;2022-11-21T03:58:54;16.17;;;2.63;;
25549;SDS011;13444;50.562;7.262;2022-11-21T04:01:20;8.47;;;2.63;;
25549;SDS011;13444;50.562;7.262;2022-11-21T04:03:45;6.57;;;2.27;;
25549;SDS011;13444;50.562;7.262;2022-11-21T04:06:12;8.83;;;2.03;;
25549;SDS011;13444;50.562;7.262;2022-11-21T04:08:39;8.60;;;2.27;;
25549;SDS011;13444;50.562;7.262;2022-11-21T04:11:05;8.23;;;2.43;;
25549;SDS011;13444;50.562;7.262;2022-11-21T04:13:31;6.30;;;2.30;;
25549;SDS011;13444;50.562;7.262;2022-11-21T04:15:57;7.77;;;2.30;;
25549;SDS011;13444;50.562;7.262;2022-11-21T04:18:23;6.40;;;1.90;;
25549;SDS011;13444;50.562;7.262;2022-11-21T04:20:54;7.80;;;2.40;;
25549;SDS011;13444;50.562;7.262;2022-11-21T04:23:23;5.80;;;2.03;;
25549;SDS011;13444;50.562;7.262;2022-11-21T04:25:49;9.87;;;2.40;;
25549;SDS011;13444;50.562;7.262;2022-11-21T04:28:14;7.23;;;2.03;;
25549;SDS011;13444;50.562;7.262;2022-11-21T04:30:40;7.03;;;2.03;;
25549;SDS011;13444;50.562;7.262;2022-11-21T04:33:05;6.90;;;2.47;;
25549;SDS011;13444;50.562;7.262;2022-11-21T04:35:31;5.03;;;2.13;;
25549;SDS011;13444;50.562;7.262;2022-11-21T04:37:56;4.90;;;1.90;;
25549;SDS011;13444;50.562;7.262;2022-11-21T04:40:22;6.27;;;2.00;;
25549;SDS011;13444;50.562;7.262;2022-11-21T04:42:48;4.83;;;2.03;;
25549;SDS011;13444;50.562;7.262;2022-11-21T04:45:14;6.80;;;2.70;;
25549;SDS011;13444;50.562;7.262;2022-11-21T04:47:41;5.70;;;2.03;;
25549;SDS011;13444;50.562;7.262;2022-11-21T04:50:12;6.17;;;1.80;;
25549;SDS011;13444;50.562;7.262;2022-11-21T04:52:39;9.43;;;2.47;;
25549;SDS011;13444;50.562;7.262;2022-11-21T04:55:05;7.83;;;2.80;;
25549;SDS011;13444;50.562;7.262;2022-11-21T04:57:32;7.93;;;2.30;;
25549;SDS011;13444;50.562;7.262;2022-11-21T04:59:57;6.37;;;2.27;;
25549;SDS011;13444;50.562;7.262;2022-11-21T05:02:23;7.60;;;2.17;;
25549;SDS011;13444;50.562;7.262;2022-11-21T05:04:49;9.07;;;2.10;;
25549;SDS011;13444;50.562;7.262;2022-11-21T05:07:15;5.47;;;2.40;;
25549;SDS011;13444;50.562;7.262;2022-11-21T05:09:42;6.77;;;1.90;;
25549;SDS011;13444;50.562;7.262;2022-11-21T05:12:08;9.93;;;2.43;;
25549;SDS011;13444;50.562;7.262;2022-11-21T05:14:53;8.33;;;1.80;;
25549;SDS011;13444;50.562;7.262;2022-11-21T05:17:19;5.57;;;2.23;;
25549;SDS011;13444;50.562;7.262;2022-11-21T05:19:45;7.23;;;2.57;;
25549;SDS011;13444;50.562;7.262;2022-11-21T05:22:10;4.87;;;1.87;;
25549;SDS011;13444;50.562;7.262;2022-11-21T05:24:36;4.07;;;1.50;;
25549;SDS011;13444;50.562;7.262;2022-11-21T05:27:02;5.50;;;2.30;;
25549;SDS011;13444;50.562;7.262;2022-11-21T05:29:27;4.93;;;1.40;;
25549;SDS011;13444;50.562;7.262;2022-11-21T05:31:53;5.00;;;1.70;;
25549;SDS011;13444;50.562;7.262;2022-11-21T05:34:18;4.00;;;1.70;;
25549;SDS011;13444;50.562;7.262;2022-11-21T05:36:44;4.40;;;1.70;;
25549;SDS011;13444;50.562;7.262;2022-11-21T05:39:09;4.37;;;1.70;;
25549;SDS011;13444;50.562;7.262;2022-11-21T05:41:35;3.63;;;2.17;;
25549;SDS011;13444;50.562;7.262;2022-11-21T05:44:00;4.50;;;1.80;;
25549;SDS011;13444;50.562;7.262;2022-11-21T05:46:26;4.83;;;1.60;;
25549;SDS011;13444;50.562;7.262;2022-11-21T05:48:52;5.80;;;1.90;;
25549;SDS011;13444;50.562;7.262;2022-11-21T05:51:18;5.73;;;2.63;;
25549;SDS011;13444;50.562;7.262;2022-11-21T05:53:45;4.00;;;2.00;;
25549;SDS011;13444;50.562;7.262;2022-11-21T05:56:13;4.33;;;1.93;;
25549;SDS011;13444;50.562;7.262;2022-11-21T05:58:40;5.27;;;2.00;;
25549;SDS011;13444;50.562;7.262;2022-11-21T06:01:07;5.40;;;2.00;;
25549;SDS011;13444;50.562;7.262;2022-11-21T06:03:35;7.43;;;2.40;;
25549;SDS011;13444;50.562;7.262;2022-11-21T06:06:06;6.80;;;2.17;;
25549;SDS011;13444;50.562;7.262;2022-11-21T06:08:35;6.97;;;2.50;;
25549;SDS011;13444;50.562;7.262;2022-11-21T06:11:06;7.73;;;2.90;;
25549;SDS011;13444;50.562;7.262;2022-11-21T06:13:33;9.93;;;3.67;;
25549;SDS011;13444;50.562;7.262;2022-11-21T06:19:21;5.27;;;2.63;;
25549;SDS011;13444;50.562;7.262;2022-11-21T06:21:46;8.23;;;2.77;;
25549;SDS011;13444;50.562;7.262;2022-11-21T06:24:12;6.67;;;2.50;;
25549;SDS011;13444;50.562;7.262;2022-11-21T06:26:37;13.00;;;4.20;;
25549;SDS011;13444;50.562;7.262;2022-11-21T06:29:03;9.03;;;3.27;;
25549;SDS011;13444;50.562;7.262;2022-11-21T06:31:28;8.07;;;2.80;;
25549;SDS011;13444;50.562;7.262;2022-11-21T06:33:56;6.63;;;3.00;;
25549;SDS011;13444;50.562;7.262;2022-11-21T06:36:23;7.17;;;3.27;;
25549;SDS011;13444;50.562;7.262;2022-11-21T06:38:49;9.77;;;5.80;;
25549;SDS011;13444;50.562;7.262;2022-11-21T06:41:17;8.43;;;4.10;;
25549;SDS011;13444;50.562;7.262;2022-11-21T06:43:44;12.07;;;3.67;;
25549;SDS011;13444;50.562;7.262;2022-11-21T06:46:10;7.73;;;3.93;;
25549;SDS011;13444;50.562;7.262;2022-11-21T06:48:37;8.20;;;3.90;;
25549;SDS011;13444;50.562;7.262;2022-11-21T06:51:03;12.10;;;5.07;;
25549;SDS011;13444;50.562;7.262;2022-11-21T06:53:30;9.53;;;5.40;;
25549;SDS011;13444;50.562;7.262;2022-11-21T06:56:00;10.20;;;4.67;;
25549;SDS011;13444;50.562;7.262;2022-11-21T06:58:26;7.37;;;4.00;;
25549;SDS011;13444;50.562;7.262;2022-11-21T07:00:52;9.23;;;3.80;;
25549;SDS011;13444;50.562;7.262;2022-11-21T07:03:18;8.80;;;4.00;;
25549;SDS011;13444;50.562;7.262;2022-11-21T07:05:45;7.83;;;3.73;;
25549;SDS011;13444;50.562;7.262;2022-11-21T07:08:10;9.00;;;3.53;;
25549;SDS011;13444;50.562;7.262;2022-11-21T07:10:36;4.27;;;2.70;;
25549;SDS011;13444;50.562;7.262;2022-11-21T07:13:01;8.17;;;3.40;;
25549;SDS011;13444;50.562;7.262;2022-11-21T07:15:46;7.17;;;3.50;;
25549;SDS011;13444;50.562;7.262;2022-11-21T07:18:13;10.37;;;4.13;;
25549;SDS011;13444;50.562;7.262;2022-11-21T07:20:39;10.07;;;3.80;;
25549;SDS011;13444;50.562;7.262;2022-11-21T07:23:05;12.07;;;4.53;;
25549;SDS011;13444;50.562;7.262;2022-11-21T07:25:31;7.93;;;3.73;;
25549;SDS011;13444;50.562;7.262;2022-11-21T07:27:57;9.20;;;3.87;;
25549;SDS011;13444;50.562;7.262;2022-11-21T07:30:24;7.90;;;3.67;;
25549;SDS011;13444;50.562;7.262;2022-11-21T07:33:00;10.17;;;3.93;;
25549;SDS011;13444;50.562;7.262;2022-11-21T07:35:28;7.70;;;3.37;;
25549;SDS011;13444;50.562;7.262;2022-11-21T07:37:54;5.07;;;3.00;;
25549;SDS011;13444;50.562;7.262;2022-11-21T07:40:20;4.90;;;3.40;;
25549;SDS011;13444;50.562;7.262;2022-11-21T07:42:46;10.00;;;3.50;;
25549;SDS011;13444;50.562;7.262;2022-11-21T07:45:12;11.00;;;4.17;;
25549;SDS011;13444;50.562;7.262;2022-11-21T07:47:38;15.10;;;4.50;;
25549;SDS011;13444;50.562;7.262;2022-11-21T07:50:04;16.40;;;4.93;;
25549;SDS011;13444;50.562;7.262;2022-11-21T07:52:31;10.00;;;4.47;;
25549;SDS011;13444;50.562;7.262;2022-11-21T07:54:56;10.80;;;3.90;;
25549;SDS011;13444;50.562;7.262;2022-11-21T07:57:22;8.03;;;3.43;;
25549;SDS011;13444;50.562;7.262;2022-11-21T07:59:48;7.20;;;3.20;;
25549;SDS011;13444;50.562;7.262;2022-11-21T08:02:21;6.90;;;2.90;;
25549;SDS011;13444;50.562;7.262;2022-11-21T08:04:48;8.67;;;3.20;;
25549;SDS011;13444;50.562;7.262;2022-11-21T08:07:14;7.00;;;2.60;;
25549;SDS011;13444;50.562;7.262;2022-11-21T08:09:43;6.93;;;2.80;;
25549;SDS011;13444;50.562;7.262;2022-11-21T08:12:09;9.47;;;2.83;;
25549;SDS011;13444;50.562;7.262;2022-11-21T08:14:35;5.40;;;2.90;;
25549;SDS011;13444;50.562;7.262;2022-11-21T08:17:01;7.67;;;2.87;;
25549;SDS011;13444;50.562;7.262;2022-11-21T08:19:28;5.20;;;2.90;;
25549;SDS011;13444;50.562;7.262;2022-11-21T08:21:53;6.17;;;2.63;;
25549;SDS011;13444;50.562;7.262;2022-11-21T08:24:19;5.57;;;2.90;;
25549;SDS011;13444;50.562;7.262;2022-11-21T08:26:44;10.23;;;3.57;;
25549;SDS011;13444;50.562;7.262;2022-11-21T08:29:10;9.17;;;3.43;;
25549;SDS011;13444;50.562;7.262;2022-11-21T08:31:37;11.77;;;3.80;;
25549;SDS011;13444;50.562;7.262;2022-11-21T08:34:03;6.23;;;3.87;;
25549;SDS011;13444;50.562;7.262;2022-11-21T08:36:29;7.67;;;3.47;;
25549;SDS011;13444;50.562;7.262;2022-11-21T08:38:54;8.50;;;3.27;;
25549;SDS011;13444;50.562;7.262;2022-11-21T08:41:20;6.17;;;3.03;;
25549;SDS011;13444;50.562;7.262;2022-11-21T08:44:04;8.70;;;2.77;;
25549;SDS011;13444;50.562;7.262;2022-11-21T08:46:31;6.10;;;2.90;;
25549;SDS011;13444;50.562;7.262;2022-11-21T08:49:01;6.87;;;3.60;;
25549;SDS011;13444;50.562;7.262;2022-11-21T08:51:27;7.17;;;3.17;;
25549;SDS011;13444;50.562;7.262;2022-11-21T08:53:52;8.43;;;3.40;;
25549;SDS011;13444;50.562;7.262;2022-11-21T08:56:18;3.70;;;2.80;;
25549;SDS011;13444;50.562;7.262;2022-11-21T08:58:43;6.23;;;3.00;;
25549;SDS011;13444;50.562;7.262;2022-11-21T09:01:09;7.63;;;3.00;;
25549;SDS011;13444;50.562;7.262;2022-11-21T09:03:34;6.10;;;3.13;;
25549;SDS011;13444;50.562;7.262;2022-11-21T09:06:00;6.90;;;2.80;;
25549;SDS011;13444;50.562;7.262;2022-11-21T09:08:25;6.80;;;2.47;;
25549;SDS011;13444;50.562;7.262;2022-11-21T09:10:51;4.30;;;2.40;;
25549;SDS011;13444;50.562;7.262;2022-11-21T09:13:17;6.20;;;2.90;;
25549;SDS011;13444;50.562;7.262;2022-11-21T09:15:42;10.13;;;6.93;;
25549;SDS011;13444;50.562;7.262;2022-11-21T09:18:27;14.23;;;8.23;;
25549;SDS011;13444;50.562;7.262;2022-11-21T09:20:52;10.27;;;6.57;;
25549;SDS011;13444;50.562;7.262;2022-11-21T09:23:18;7.80;;;5.07;;
25549;SDS011;13444;50.562;7.262;2022-11-21T09:25:43;12.50;;;7.97;;
25549;SDS011;13444;50.562;7.262;2022-11-21T09:28:10;10.93;;;7.53;;
25549;SDS011;13444;50.562;7.262;2022-11-21T09:30:37;10.17;;;6.60;;
25549;SDS011;13444;50.562;7.262;2022-11-21T09:33:04;5.90;;;3.83;;
25549;SDS011;13444;50.562;7.262;2022-11-21T09:35:31;6.57;;;3.43;;
25549;SDS011;13444;50.562;7.262;2022-11-21T09:37:57;4.30;;;2.57;;
25549;SDS011;13444;50.562;7.262;2022-11-21T09:40:23;7.63;;;2.63;;
25549;SDS011;13444;50.562;7.262;2022-11-21T09:45:33;3.30;;;2.17;;
25549;SDS011;13444;50.562;7.262;2022-11-21T09:48:09;5.30;;;2.30;;
25549;SDS011;13444;50.562;7.262;2022-11-21T09:50:41;7.95;;;2.78;;
25549;SDS011;13444;50.562;7.262;2022-11-21T09:53:22;5.05;;;2.40;;
25549;SDS011;13444;50.562;7.262;2022-11-21T09:56:05;5.30;;;2.40;;
25549;SDS011;13444;50.562;7.262;2022-11-21T09:58:41;6.35;;;2.50;;
25549;SDS011;13444;50.562;7.262;2022-11-21T10:01:11;3.95;;;2.10;;
25549;SDS011;13444;50.562;7.262;2022-11-21T10:03:41;3.83;;;2.00;;
25549;SDS011;13444;50.562;7.262;2022-11-21T10:06:26;3.92;;;1.70;;
25549;SDS011;13444;50.562;7.262;2022-11-21T10:12:18;5.28;;;1.25;;
25549;SDS011;13444;50.562;7.262;2022-11-21T10:15:28;2.58;;;1.00;;
25549;SDS011;13444;50.562;7.262;2022-11-21T10:18:17;2.28;;;1.25;;
25549;SDS011;13444;50.562;7.262;2022-11-21T10:20:51;3.10;;;1.38;;
25549;SDS011;13444;50.562;7.262;2022-11-21T10:26:15;3.17;;;1.55;;
25549;SDS011;13444;50.562;7.262;2022-11-21T10:29:03;2.85;;;1.40;;
25549;SDS011;13444;50.562;7.262;2022-11-21T10:31:39;3.97;;;1.50;;
25549;SDS011;13444;50.562;7.262;2022-11-21T10:34:09;2.35;;;0.77;;
25549;SDS011;13444;50.562;7.262;2022-11-21T10:36:39;4.20;;;1.40;;
25549;SDS011;13444;50.562;7.262;2022-11-21T10:39:30;1.98;;;1.20;;
25549;SDS011;13444;50.562;7.262;2022-11-21T10:42:15;3.95;;;1.25;;
25549;SDS011;13444;50.562;7.262;2022-11-21T10:44:53;4.05;;;1.10;;
25549;SDS011;13444;50.562;7.262;2022-11-21T10:47:39;2.08;;;0.90;;
25549;SDS011;13444;50.562;7.262;2022-11-21T10:52:35;4.38;;;1.10;;
25549;SDS011;13444;50.562;7.262;2022-11-21T10:55:11;1.73;;;0.98;;
25549;SDS011;13444;50.562;7.262;2022-11-21T10:57:44;3.72;;;1.48;;
25549;SDS011;13444;50.562;7.262;2022-11-21T11:02:40;5.43;;;1.08;;
25549;SDS011;13444;50.562;7.262;2022-11-21T11:05:35;4.38;;;1.20;;
25549;SDS011;13444;50.562;7.262;2022-11-21T11:08:11;4.72;;;1.10;;
25549;SDS011;13444;50.562;7.262;2022-11-21T11:10:42;5.82;;;1.27;;
25549;SDS011;13444;50.562;7.262;2022-11-21T11:13:25;4.20;;;0.80;;
25549;SDS011;13444;50.562;7.262;2022-11-21T11:18:38;4.07;;;0.95;;
25549;SDS011;13444;50.562;7.262;2022-11-21T11:23:50;4.25;;;1.20;;
25549;SDS011;13444;50.562;7.262;2022-11-21T11:26:27;1.98;;;1.02;;
25549;SDS011;13444;50.562;7.262;2022-11-21T11:29:15;8.20;;;1.35;;
25549;SDS011;13444;50.562;7.262;2022-11-21T11:31:58;1.88;;;1.00;;
25549;SDS011;13444;50.562;7.262;2022-11-21T11:35:25;3.17;;;0.80;;
25549;SDS011;13444;50.562;7.262;2022-11-21T11:37:38;5.10;;;1.05;;
25549;SDS011;13444;50.562;7.262;2022-11-21T11:40:17;4.85;;;1.42;;
25549;SDS011;13444;50.562;7.262;2022-11-21T11:48:54;4.10;;;0.88;;
25549;SDS011;13444;50.562;7.262;2022-11-21T11:51:29;2.35;;;1.30;;
25549;SDS011;13444;50.562;7.262;2022-11-21T11:54:09;3.53;;;1.20;;
25549;SDS011;13444;50.562;7.262;2022-11-21T11:56:39;3.60;;;1.00;;
25549;SDS011;13444;50.562;7.262;2022-11-21T11:59:27;5.05;;;1.20;;
25549;SDS011;13444;50.562;7.262;2022-11-21T12:04:52;4.82;;;1.27;;
25549;SDS011;13444;50.562;7.262;2022-11-21T12:07:25;2.85;;;0.90;;
25549;SDS011;13444;50.562;7.262;2022-11-21T12:13:10;4.70;;;0.90;;
25549;SDS011;13444;50.562;7.262;2022-11-21T12:15:41;5.00;;;1.50;;
25549;SDS011;13444;50.562;7.262;2022-11-21T12:23:05;4.93;;;2.70;;
25549;SDS011;13444;50.562;7.262;2022-11-21T12:25:36;3.72;;;1.35;;
25549;SDS011;13444;50.562;7.262;2022-11-21T12:28:16;3.72;;;1.40;;
25549;SDS011;13444;50.562;7.262;2022-11-21T12:31:14;7.20;;;3.13;;
25549;SDS011;13444;50.562;7.262;2022-11-21T12:34:02;6.25;;;2.90;;
25549;SDS011;13444;50.562;7.262;2022-11-21T12:43:03;4.28;;;1.60;;
25549;SDS011;13444;50.562;7.262;2022-11-21T12:45:38;7.60;;;2.40;;
25549;SDS011;13444;50.562;7.262;2022-11-21T12:48:29;6.18;;;2.60;;
25549;SDS011;13444;50.562;7.262;2022-11-21T12:54:30;8.10;;;2.42;;
25549;SDS011;13444;50.562;7.262;2022-11-21T12:57:17;4.13;;;1.45;;
25549;SDS011;13444;50.562;7.262;2022-11-21T12:59:56;5.25;;;1.60;;
25549;SDS011;13444;50.562;7.262;2022-11-21T13:05:19;3.83;;;1.08;;
25549;SDS011;13444;50.562;7.262;2022-11-21T13:07:52;7.95;;;1.88;;
25549;SDS011;13444;50.562;7.262;2022-11-21T13:10:25;6.97;;;1.75;;
25549;SDS011;13444;50.562;7.262;2022-11-21T13:15:53;6.47;;;1.77;;
25549;SDS011;13444;50.562;7.262;2022-11-21T13:18:42;4.47;;;1.52;;
25549;SDS011;13444;50.562;7.262;2022-11-21T13:24:05;5.55;;;1.40;;
25549;SDS011;13444;50.562;7.262;2022-11-21T13:31:35;4.40;;;1.42;;
25549;SDS011;13444;50.562;7.262;2022-11-21T13:34:01;3.83;;;1.33;;
25549;SDS011;13444;50.562;7.262;2022-11-21T13:47:04;4.40;;;1.25;;
25549;SDS011;13444;50.562;7.262;2022-11-21T13:49:55;3.58;;;1.48;;
25549;SDS011;13444;50.562;7.262;2022-11-21T13:52:40;4.93;;;1.70;;
25549;SDS011;13444;50.562;7.262;2022-11-21T13:55:17;9.35;;;1.60;;
25549;SDS011;13444;50.562;7.262;2022-11-21T14:03:55;6.35;;;1.77;;
25549;SDS011;13444;50.562;7.262;2022-11-21T14:06:34;8.90;;;1.85;;
25549;SDS011;13444;50.562;7.262;2022-11-21T14:09:20;8.00;;;1.67;;
25549;SDS011;13444;50.562;7.262;2022-11-21T14:14:47;6.97;;;1.88;;
25549;SDS011;13444;50.562;7.262;2022-11-21T14:19:48;7.30;;;1.60;;
25549;SDS011;13444;50.562;7.262;2022-11-21T14:22:23;4.35;;;1.58;;
25549;SDS011;13444;50.562;7.262;2022-11-21T14:24:59;7.43;;;1.80;;
25549;SDS011;13444;50.562;7.262;2022-11-21T14:27:30;7.40;;;2.08;;
25549;SDS011;13444;50.562;7.262;2022-11-21T14:29:57;9.15;;;2.08;;
25549;SDS011;13444;50.562;7.262;2022-11-21T14:32:29;10.23;;;1.77;;
25549;SDS011;13444;50.562;7.262;2022-11-21T14:35:08;9.25;;;1.80;;
25549;SDS011;13444;50.562;7.262;2022-11-21T14:37:44;7.40;;;1.33;;
25549;SDS011;13444;50.562;7.262;2022-11-21T14:40:14;6.60;;;2.15;;
25549;SDS011;13444;50.562;7.262;2022-11-21T14:42:45;3.67;;;1.95;;
25549;SDS011;13444;50.562;7.262;2022-11-21T14:45:15;6.47;;;1.80;;
25549;SDS011;13444;50.562;7.262;2022-11-21T14:47:47;6.03;;;1.90;;
25549;SDS011;13444;50.562;7.262;2022-11-21T14:50:23;7.53;;;2.50;;
25549;SDS011;13444;50.562;7.262;2022-11-21T14:52:51;8.57;;;2.42;;
25549;SDS011;13444;50.562;7.262;2022-11-21T14:55:22;5.60;;;1.80;;
25549;SDS011;13444;50.562;7.262;2022-11-21T14:57:53;9.00;;;2.38;;
25549;SDS011;13444;50.562;7.262;2022-11-21T15:00:20;7.22;;;2.03;;
25549;SDS011;13444;50.562;7.262;2022-11-21T15:02:49;8.30;;;2.10;;
25549;SDS011;13444;50.562;7.262;2022-11-21T15:05:19;8.52;;;2.10;;
25549;SDS011;13444;50.562;7.262;2022-11-21T15:07:47;6.35;;;1.98;;
25549;SDS011;13444;50.562;7.262;2022-11-21T15:10:17;8.18;;;2.03;;
25549;SDS011;13444;50.562;7.262;2022-11-21T15:15:22;6.28;;;2.20;;
25549;SDS011;13444;50.562;7.262;2022-11-21T15:17:58;9.40;;;2.20;;
25549;SDS011;13444;50.562;7.262;2022-11-21T15:20:26;8.80;;;1.77;;
25549;SDS011;13444;50.562;7.262;2022-11-21T15:22:56;8.75;;;2.00;;
25549;SDS011;13444;50.562;7.262;2022-11-21T15:25:24;7.70;;;2.08;;
25549;SDS011;13444;50.562;7.262;2022-11-21T15:30:24;7.43;;;2.00;;
25549;SDS011;13444;50.562;7.262;2022-11-21T15:33:06;6.20;;;1.75;;
25549;SDS011;13444;50.562;7.262;2022-11-21T15:35:44;6.63;;;2.17;;
25549;SDS011;13444;50.562;7.262;2022-11-21T15:43:46;6.82;;;1.90;;
25549;SDS011;13444;50.562;7.262;2022-11-21T15:46:25;9.75;;;2.33;;
25549;SDS011;13444;50.562;7.262;2022-11-21T15:51:22;6.13;;;2.10;;
25549;SDS011;13444;50.562;7.262;2022-11-21T15:53:49;8.37;;;2.90;;
25549;SDS011;13444;50.562;7.262;2022-11-21T15:56:19;7.40;;;2.25;;
25549;SDS011;13444;50.562;7.262;2022-11-21T15:58:46;6.05;;;2.15;;
25549;SDS011;13444;50.562;7.262;2022-11-21T16:01:12;7.60;;;2.70;;
25549;SDS011;13444;50.562;7.262;2022-11-21T16:03:38;7.97;;;2.58;;
25549;SDS011;13444;50.562;7.262;2022-11-21T16:06:03;10.50;;;2.20;;
25549;SDS011;13444;50.562;7.262;2022-11-21T16:08:29;5.13;;;2.10;;
25549;SDS011;13444;50.562;7.262;2022-11-21T16:10:54;7.85;;;2.03;;
25549;SDS011;13444;50.562;7.262;2022-11-21T16:13:20;5.85;;;2.63;;
25549;SDS011;13444;50.562;7.262;2022-11-21T16:15:45;6.18;;;1.80;;
25549;SDS011;13444;50.562;7.262;2022-11-21T16:18:11;6.47;;;1.90;;
25549;SDS011;13444;50.562;7.262;2022-11-21T16:20:36;9.60;;;2.10;;
25549;SDS011;13444;50.562;7.262;2022-11-21T16:23:02;6.63;;;2.10;;
25549;SDS011;13444;50.562;7.262;2022-11-21T16:25:28;7.27;;;2.00;;
25549;SDS011;13444;50.562;7.262;2022-11-21T16:27:54;7.80;;;2.47;;
25549;SDS011;13444;50.562;7.262;2022-11-21T16:30:21;8.07;;;2.60;;
25549;SDS011;13444;50.562;7.262;2022-11-21T16:32:46;9.50;;;3.50;;
25549;SDS011;13444;50.562;7.262;2022-11-21T16:35:12;9.33;;;3.50;;
25549;SDS011;13444;50.562;7.262;2022-11-21T16:37:37;13.07;;;5.97;;
25549;SDS011;13444;50.562;7.262;2022-11-21T16:40:03;12.73;;;7.47;;
25549;SDS011;13444;50.562;7.262;2022-11-21T16:42:29;9.77;;;6.00;;